sensor_id;sensor_type;location;lat;lon;timestamp;P1;durP1;ratioP1;P2;durP2;ratioP2
15681;SDS011;7941;50.966;6.978;2022-08-07T00:01:05;1.77;;;1.67;;
15681;SDS011;7941;50.966;6.978;2022-08-07T00:03:31;2.57;;;1.87;;
15681;SDS011;7941;50.966;6.978;2022-08-07T00:05:58;2.50;;;1.70;;
15681;SDS011;7941;50.966;6.978;2022-08-07T00:08:24;2.77;;;1.50;;
15681;SDS011;7941;50.966;6.978;2022-08-07T00:10:50;1.63;;;1.53;;
15681;SDS011;7941;50.966;6.978;2022-08-07T00:13:18;2.60;;;1.87;;
15681;SDS011;7941;50.966;6.978;2022-08-07T00:15:44;1.67;;;1.57;;
15681;SDS011;7941;50.966;6.978;2022-08-07T00:18:10;3.03;;;1.63;;
15681;SDS011;7941;50.966;6.978;2022-08-07T00:20:37;1.70;;;1.60;;
15681;SDS011;7941;50.966;6.978;2022-08-07T00:23:03;3.33;;;2.10;;
15681;SDS011;7941;50.966;6.978;2022-08-07T00:25:31;2.30;;;2.10;;
15681;SDS011;7941;50.966;6.978;2022-08-07T00:27:57;4.33;;;2.10;;
15681;SDS011;7941;50.966;6.978;2022-08-07T00:30:23;3.17;;;2.10;;
15681;SDS011;7941;50.966;6.978;2022-08-07T00:32:49;3.30;;;1.93;;
15681;SDS011;7941;50.966;6.978;2022-08-07T00:35:19;2.30;;;2.10;;
15681;SDS011;7941;50.966;6.978;2022-08-07T00:37:45;2.00;;;1.80;;
15681;SDS011;7941;50.966;6.978;2022-08-07T00:40:12;2.00;;;1.60;;
15681;SDS011;7941;50.966;6.978;2022-08-07T00:42:38;2.33;;;1.60;;
15681;SDS011;7941;50.966;6.978;2022-08-07T00:45:06;3.87;;;1.80;;
15681;SDS011;7941;50.966;6.978;2022-08-07T00:47:32;3.50;;;1.70;;
15681;SDS011;7941;50.966;6.978;2022-08-07T00:49:58;2.23;;;1.57;;
15681;SDS011;7941;50.966;6.978;2022-08-07T00:52:24;2.90;;;1.80;;
15681;SDS011;7941;50.966;6.978;2022-08-07T00:54:50;3.23;;;2.00;;
15681;SDS011;7941;50.966;6.978;2022-08-07T00:57:17;3.33;;;2.10;;
15681;SDS011;7941;50.966;6.978;2022-08-07T00:59:43;2.30;;;2.10;;
15681;SDS011;7941;50.966;6.978;2022-08-07T01:02:09;3.80;;;2.20;;
15681;SDS011;7941;50.966;6.978;2022-08-07T01:04:36;2.20;;;2.00;;
15681;SDS011;7941;50.966;6.978;2022-08-07T01:07:02;2.03;;;1.90;;
15681;SDS011;7941;50.966;6.978;2022-08-07T01:09:29;2.60;;;1.90;;
15681;SDS011;7941;50.966;6.978;2022-08-07T01:11:55;3.23;;;2.20;;
15681;SDS011;7941;50.966;6.978;2022-08-07T01:14:21;1.70;;;1.60;;
15681;SDS011;7941;50.966;6.978;2022-08-07T01:16:48;2.20;;;1.70;;
15681;SDS011;7941;50.966;6.978;2022-08-07T01:19:15;3.57;;;2.10;;
15681;SDS011;7941;50.966;6.978;2022-08-07T01:21:41;2.00;;;1.90;;
15681;SDS011;7941;50.966;6.978;2022-08-07T01:24:07;4.63;;;1.87;;
15681;SDS011;7941;50.966;6.978;2022-08-07T01:26:34;2.10;;;1.73;;
15681;SDS011;7941;50.966;6.978;2022-08-07T01:29:00;3.03;;;2.07;;
15681;SDS011;7941;50.966;6.978;2022-08-07T01:31:27;5.33;;;2.07;;
15681;SDS011;7941;50.966;6.978;2022-08-07T01:33:56;2.10;;;2.00;;
15681;SDS011;7941;50.966;6.978;2022-08-07T01:36:23;3.73;;;2.47;;
15681;SDS011;7941;50.966;6.978;2022-08-07T01:38:49;3.80;;;2.00;;
15681;SDS011;7941;50.966;6.978;2022-08-07T01:41:15;2.17;;;2.00;;
15681;SDS011;7941;50.966;6.978;2022-08-07T01:43:41;2.80;;;2.10;;
15681;SDS011;7941;50.966;6.978;2022-08-07T01:46:07;2.17;;;1.90;;
15681;SDS011;7941;50.966;6.978;2022-08-07T01:48:34;2.17;;;1.90;;
15681;SDS011;7941;50.966;6.978;2022-08-07T01:51:03;1.53;;;1.43;;
15681;SDS011;7941;50.966;6.978;2022-08-07T01:53:32;3.80;;;2.10;;
15681;SDS011;7941;50.966;6.978;2022-08-07T01:56:00;1.90;;;1.70;;
15681;SDS011;7941;50.966;6.978;2022-08-07T01:58:30;3.17;;;2.10;;
15681;SDS011;7941;50.966;6.978;2022-08-07T02:00:58;4.33;;;2.10;;
15681;SDS011;7941;50.966;6.978;2022-08-07T02:03:26;4.10;;;1.90;;
15681;SDS011;7941;50.966;6.978;2022-08-07T02:05:57;3.63;;;2.17;;
15681;SDS011;7941;50.966;6.978;2022-08-07T02:08:24;2.27;;;2.07;;
15681;SDS011;7941;50.966;6.978;2022-08-07T02:10:51;3.03;;;2.63;;
15681;SDS011;7941;50.966;6.978;2022-08-07T02:13:21;2.23;;;2.03;;
15681;SDS011;7941;50.966;6.978;2022-08-07T02:15:47;3.97;;;2.80;;
15681;SDS011;7941;50.966;6.978;2022-08-07T02:18:14;3.13;;;2.87;;
15681;SDS011;7941;50.966;6.978;2022-08-07T02:20:41;2.17;;;2.03;;
15681;SDS011;7941;50.966;6.978;2022-08-07T02:23:07;3.27;;;2.00;;
15681;SDS011;7941;50.966;6.978;2022-08-07T02:25:33;2.77;;;2.30;;
15681;SDS011;7941;50.966;6.978;2022-08-07T02:28:01;2.70;;;2.20;;
15681;SDS011;7941;50.966;6.978;2022-08-07T02:30:28;3.53;;;2.73;;
15681;SDS011;7941;50.966;6.978;2022-08-07T02:32:55;3.60;;;2.50;;
15681;SDS011;7941;50.966;6.978;2022-08-07T02:35:22;3.50;;;2.40;;
15681;SDS011;7941;50.966;6.978;2022-08-07T02:37:49;4.37;;;2.40;;
15681;SDS011;7941;50.966;6.978;2022-08-07T02:40:16;3.00;;;2.77;;
15681;SDS011;7941;50.966;6.978;2022-08-07T02:42:42;4.53;;;3.03;;
15681;SDS011;7941;50.966;6.978;2022-08-07T02:45:11;2.97;;;2.77;;
15681;SDS011;7941;50.966;6.978;2022-08-07T02:47:37;4.83;;;2.80;;
15681;SDS011;7941;50.966;6.978;2022-08-07T02:50:03;3.70;;;3.33;;
15681;SDS011;7941;50.966;6.978;2022-08-07T02:52:32;6.10;;;3.40;;
15681;SDS011;7941;50.966;6.978;2022-08-07T02:57:56;3.43;;;2.93;;
15681;SDS011;7941;50.966;6.978;2022-08-07T03:00:23;3.80;;;2.90;;
15681;SDS011;7941;50.966;6.978;2022-08-07T03:02:50;3.17;;;2.90;;
15681;SDS011;7941;50.966;6.978;2022-08-07T03:05:17;3.33;;;3.03;;
15681;SDS011;7941;50.966;6.978;2022-08-07T03:07:43;3.40;;;3.10;;
15681;SDS011;7941;50.966;6.978;2022-08-07T03:10:11;3.30;;;3.03;;
15681;SDS011;7941;50.966;6.978;2022-08-07T03:12:37;4.10;;;3.50;;
15681;SDS011;7941;50.966;6.978;2022-08-07T03:15:05;3.77;;;3.00;;
15681;SDS011;7941;50.966;6.978;2022-08-07T03:17:31;3.60;;;3.30;;
15681;SDS011;7941;50.966;6.978;2022-08-07T03:19:58;3.90;;;3.60;;
15681;SDS011;7941;50.966;6.978;2022-08-07T03:22:24;3.30;;;3.00;;
15681;SDS011;7941;50.966;6.978;2022-08-07T03:24:51;5.00;;;3.70;;
15681;SDS011;7941;50.966;6.978;2022-08-07T03:27:17;4.17;;;3.80;;
15681;SDS011;7941;50.966;6.978;2022-08-07T03:29:45;4.60;;;3.87;;
15681;SDS011;7941;50.966;6.978;2022-08-07T03:32:11;6.27;;;4.10;;
15681;SDS011;7941;50.966;6.978;2022-08-07T03:34:40;4.13;;;3.63;;
15681;SDS011;7941;50.966;6.978;2022-08-07T03:37:07;4.70;;;4.00;;
15681;SDS011;7941;50.966;6.978;2022-08-07T03:39:35;3.87;;;3.57;;
15681;SDS011;7941;50.966;6.978;2022-08-07T03:42:02;4.23;;;3.63;;
15681;SDS011;7941;50.966;6.978;2022-08-07T03:44:29;4.43;;;3.63;;
15681;SDS011;7941;50.966;6.978;2022-08-07T03:46:55;4.20;;;3.63;;
15681;SDS011;7941;50.966;6.978;2022-08-07T03:49:21;3.90;;;3.60;;
15681;SDS011;7941;50.966;6.978;2022-08-07T03:51:47;6.30;;;4.03;;
15681;SDS011;7941;50.966;6.978;2022-08-07T03:54:14;3.80;;;3.40;;
15681;SDS011;7941;50.966;6.978;2022-08-07T03:56:40;5.63;;;3.43;;
15681;SDS011;7941;50.966;6.978;2022-08-07T03:59:07;3.90;;;3.60;;
15681;SDS011;7941;50.966;6.978;2022-08-07T04:01:38;4.50;;;3.40;;
15681;SDS011;7941;50.966;6.978;2022-08-07T04:04:05;4.33;;;3.93;;
15681;SDS011;7941;50.966;6.978;2022-08-07T04:06:31;6.07;;;3.90;;
15681;SDS011;7941;50.966;6.978;2022-08-07T04:08:59;3.93;;;3.50;;
15681;SDS011;7941;50.966;6.978;2022-08-07T04:11:25;4.47;;;3.73;;
15681;SDS011;7941;50.966;6.978;2022-08-07T04:13:51;4.43;;;4.10;;
15681;SDS011;7941;50.966;6.978;2022-08-07T04:16:18;3.67;;;3.37;;
15681;SDS011;7941;50.966;6.978;2022-08-07T04:18:45;5.13;;;3.40;;
15681;SDS011;7941;50.966;6.978;2022-08-07T04:21:11;4.10;;;3.70;;
15681;SDS011;7941;50.966;6.978;2022-08-07T04:23:37;3.67;;;3.37;;
15681;SDS011;7941;50.966;6.978;2022-08-07T04:26:05;5.87;;;3.70;;
15681;SDS011;7941;50.966;6.978;2022-08-07T04:28:31;5.10;;;3.60;;
15681;SDS011;7941;50.966;6.978;2022-08-07T04:30:57;4.53;;;3.70;;
15681;SDS011;7941;50.966;6.978;2022-08-07T04:33:23;4.87;;;3.53;;
15681;SDS011;7941;50.966;6.978;2022-08-07T04:35:50;3.90;;;3.60;;
15681;SDS011;7941;50.966;6.978;2022-08-07T04:38:16;3.90;;;3.60;;
15681;SDS011;7941;50.966;6.978;2022-08-07T04:40:43;4.00;;;3.70;;
15681;SDS011;7941;50.966;6.978;2022-08-07T04:43:09;3.60;;;3.30;;
15681;SDS011;7941;50.966;6.978;2022-08-07T04:48:09;5.07;;;3.87;;
15681;SDS011;7941;50.966;6.978;2022-08-07T04:50:40;4.17;;;3.73;;
15681;SDS011;7941;50.966;6.978;2022-08-07T05:00:52;4.13;;;3.83;;
15681;SDS011;7941;50.966;6.978;2022-08-07T05:06:05;6.37;;;3.97;;
15681;SDS011;7941;50.966;6.978;2022-08-07T05:08:35;4.17;;;3.77;;
15681;SDS011;7941;50.966;6.978;2022-08-07T05:11:08;5.07;;;3.80;;
15681;SDS011;7941;50.966;6.978;2022-08-07T05:13:36;3.73;;;3.40;;
15681;SDS011;7941;50.966;6.978;2022-08-07T05:16:05;4.17;;;3.50;;
15681;SDS011;7941;50.966;6.978;2022-08-07T05:18:33;3.83;;;3.43;;
15681;SDS011;7941;50.966;6.978;2022-08-07T05:21:01;3.43;;;3.23;;
15681;SDS011;7941;50.966;6.978;2022-08-07T05:23:32;3.57;;;3.27;;
15681;SDS011;7941;50.966;6.978;2022-08-07T05:26:01;5.63;;;3.40;;
15681;SDS011;7941;50.966;6.978;2022-08-07T05:28:28;3.83;;;3.43;;
15681;SDS011;7941;50.966;6.978;2022-08-07T05:30:54;3.17;;;2.80;;
15681;SDS011;7941;50.966;6.978;2022-08-07T05:33:21;3.73;;;3.43;;
15681;SDS011;7941;50.966;6.978;2022-08-07T05:35:51;4.30;;;3.37;;
15681;SDS011;7941;50.966;6.978;2022-08-07T05:38:18;3.67;;;3.30;;
15681;SDS011;7941;50.966;6.978;2022-08-07T05:40:45;3.83;;;3.50;;
15681;SDS011;7941;50.966;6.978;2022-08-07T05:43:12;3.53;;;3.03;;
15681;SDS011;7941;50.966;6.978;2022-08-07T05:45:38;3.40;;;3.20;;
15681;SDS011;7941;50.966;6.978;2022-08-07T05:48:05;3.53;;;2.97;;
15681;SDS011;7941;50.966;6.978;2022-08-07T05:50:32;4.23;;;3.53;;
15681;SDS011;7941;50.966;6.978;2022-08-07T05:53:01;2.97;;;2.77;;
15681;SDS011;7941;50.966;6.978;2022-08-07T05:55:27;3.40;;;3.10;;
15681;SDS011;7941;50.966;6.978;2022-08-07T05:57:54;5.27;;;2.83;;
15681;SDS011;7941;50.966;6.978;2022-08-07T06:00:20;3.20;;;2.90;;
15681;SDS011;7941;50.966;6.978;2022-08-07T06:02:47;4.93;;;2.97;;
15681;SDS011;7941;50.966;6.978;2022-08-07T06:05:13;4.13;;;3.00;;
15681;SDS011;7941;50.966;6.978;2022-08-07T06:07:40;3.53;;;3.23;;
15681;SDS011;7941;50.966;6.978;2022-08-07T06:10:07;2.83;;;2.60;;
15681;SDS011;7941;50.966;6.978;2022-08-07T06:12:34;4.00;;;2.80;;
15681;SDS011;7941;50.966;6.978;2022-08-07T06:15:01;2.90;;;2.80;;
15681;SDS011;7941;50.966;6.978;2022-08-07T06:17:27;2.87;;;2.63;;
15681;SDS011;7941;50.966;6.978;2022-08-07T06:19:53;3.03;;;2.83;;
15681;SDS011;7941;50.966;6.978;2022-08-07T06:22:21;6.03;;;5.07;;
15681;SDS011;7941;50.966;6.978;2022-08-07T06:24:48;2.83;;;2.63;;
15681;SDS011;7941;50.966;6.978;2022-08-07T06:27:21;4.87;;;4.40;;
15681;SDS011;7941;50.966;6.978;2022-08-07T06:29:47;3.27;;;2.97;;
15681;SDS011;7941;50.966;6.978;2022-08-07T06:32:13;2.87;;;2.67;;
15681;SDS011;7941;50.966;6.978;2022-08-07T06:34:39;3.00;;;2.63;;
15681;SDS011;7941;50.966;6.978;2022-08-07T06:37:05;5.60;;;3.33;;
15681;SDS011;7941;50.966;6.978;2022-08-07T06:39:31;2.90;;;2.70;;
15681;SDS011;7941;50.966;6.978;2022-08-07T06:44:43;4.17;;;2.73;;
15681;SDS011;7941;50.966;6.978;2022-08-07T06:47:10;2.60;;;2.40;;
15681;SDS011;7941;50.966;6.978;2022-08-07T06:49:36;3.97;;;2.30;;
15681;SDS011;7941;50.966;6.978;2022-08-07T06:52:02;3.33;;;2.33;;
15681;SDS011;7941;50.966;6.978;2022-08-07T06:54:29;2.60;;;1.70;;
15681;SDS011;7941;50.966;6.978;2022-08-07T06:56:55;2.23;;;2.00;;
15681;SDS011;7941;50.966;6.978;2022-08-07T06:59:26;3.37;;;2.63;;
15681;SDS011;7941;50.966;6.978;2022-08-07T07:01:52;2.80;;;1.70;;
15681;SDS011;7941;50.966;6.978;2022-08-07T07:04:20;3.47;;;2.03;;
15681;SDS011;7941;50.966;6.978;2022-08-07T07:06:46;2.53;;;2.10;;
15681;SDS011;7941;50.966;6.978;2022-08-07T07:14:35;2.43;;;2.23;;
15681;SDS011;7941;50.966;6.978;2022-08-07T07:17:03;2.37;;;1.93;;
15681;SDS011;7941;50.966;6.978;2022-08-07T07:19:32;2.60;;;1.87;;
15681;SDS011;7941;50.966;6.978;2022-08-07T07:21:58;3.10;;;1.93;;
15681;SDS011;7941;50.966;6.978;2022-08-07T07:24:25;3.47;;;1.97;;
15681;SDS011;7941;50.966;6.978;2022-08-07T07:26:51;1.53;;;1.43;;
15681;SDS011;7941;50.966;6.978;2022-08-07T07:29:20;3.67;;;1.73;;
15681;SDS011;7941;50.966;6.978;2022-08-07T07:31:49;2.27;;;1.70;;
15681;SDS011;7941;50.966;6.978;2022-08-07T07:34:21;2.33;;;1.60;;
15681;SDS011;7941;50.966;6.978;2022-08-07T07:36:48;3.00;;;1.90;;
15681;SDS011;7941;50.966;6.978;2022-08-07T07:39:15;1.43;;;1.33;;
15681;SDS011;7941;50.966;6.978;2022-08-07T07:41:42;2.13;;;1.40;;
15681;SDS011;7941;50.966;6.978;2022-08-07T07:44:09;1.50;;;1.40;;
15681;SDS011;7941;50.966;6.978;2022-08-07T07:46:37;1.40;;;1.30;;
15681;SDS011;7941;50.966;6.978;2022-08-07T07:49:04;2.10;;;1.80;;
15681;SDS011;7941;50.966;6.978;2022-08-07T07:51:31;2.80;;;1.90;;
15681;SDS011;7941;50.966;6.978;2022-08-07T07:53:58;3.57;;;1.50;;
15681;SDS011;7941;50.966;6.978;2022-08-07T07:56:25;1.23;;;1.17;;
15681;SDS011;7941;50.966;6.978;2022-08-07T07:58:52;3.63;;;1.97;;
15681;SDS011;7941;50.966;6.978;2022-08-07T08:01:19;2.50;;;1.77;;
15681;SDS011;7941;50.966;6.978;2022-08-07T08:03:46;1.37;;;1.07;;
15681;SDS011;7941;50.966;6.978;2022-08-07T08:06:14;2.50;;;1.27;;
15681;SDS011;7941;50.966;6.978;2022-08-07T08:08:40;1.60;;;1.33;;
15681;SDS011;7941;50.966;6.978;2022-08-07T08:11:08;1.77;;;1.40;;
15681;SDS011;7941;50.966;6.978;2022-08-07T08:13:34;2.40;;;1.60;;
15681;SDS011;7941;50.966;6.978;2022-08-07T08:16:01;4.57;;;1.33;;
15681;SDS011;7941;50.966;6.978;2022-08-07T08:18:28;1.37;;;1.10;;
15681;SDS011;7941;50.966;6.978;2022-08-07T08:20:56;1.47;;;1.30;;
15681;SDS011;7941;50.966;6.978;2022-08-07T08:23:23;2.87;;;1.20;;
15681;SDS011;7941;50.966;6.978;2022-08-07T08:26:08;2.73;;;1.20;;
15681;SDS011;7941;50.966;6.978;2022-08-07T08:28:55;1.33;;;1.00;;
15681;SDS011;7941;50.966;6.978;2022-08-07T08:31:24;1.90;;;1.27;;
15681;SDS011;7941;50.966;6.978;2022-08-07T08:33:51;1.80;;;1.30;;
15681;SDS011;7941;50.966;6.978;2022-08-07T08:36:18;2.00;;;1.00;;
15681;SDS011;7941;50.966;6.978;2022-08-07T08:38:45;1.80;;;1.40;;
15681;SDS011;7941;50.966;6.978;2022-08-07T08:41:18;1.10;;;1.10;;
15681;SDS011;7941;50.966;6.978;2022-08-07T08:46:31;1.20;;;1.10;;
15681;SDS011;7941;50.966;6.978;2022-08-07T08:49:00;3.00;;;1.10;;
15681;SDS011;7941;50.966;6.978;2022-08-07T08:54:03;3.33;;;1.30;;
15681;SDS011;7941;50.966;6.978;2022-08-07T08:56:32;1.73;;;1.20;;
15681;SDS011;7941;50.966;6.978;2022-08-07T09:01:34;1.60;;;1.50;;
15681;SDS011;7941;50.966;6.978;2022-08-07T09:06:34;4.57;;;0.97;;
15681;SDS011;7941;50.966;6.978;2022-08-07T09:09:05;2.47;;;1.20;;
15681;SDS011;7941;50.966;6.978;2022-08-07T09:11:37;1.83;;;1.03;;
15681;SDS011;7941;50.966;6.978;2022-08-07T09:16:47;1.23;;;0.80;;
15681;SDS011;7941;50.966;6.978;2022-08-07T09:22:20;2.07;;;0.70;;
15681;SDS011;7941;50.966;6.978;2022-08-07T09:32:26;2.67;;;1.37;;
15681;SDS011;7941;50.966;6.978;2022-08-07T09:39:57;4.77;;;3.47;;
15681;SDS011;7941;50.966;6.978;2022-08-07T09:42:47;3.90;;;1.80;;
15681;SDS011;7941;50.966;6.978;2022-08-07T09:45:17;1.03;;;0.90;;
15681;SDS011;7941;50.966;6.978;2022-08-07T09:47:50;1.23;;;0.90;;
15681;SDS011;7941;50.966;6.978;2022-08-07T09:53:04;2.40;;;0.90;;
15681;SDS011;7941;50.966;6.978;2022-08-07T10:00:45;2.83;;;1.00;;
15681;SDS011;7941;50.966;6.978;2022-08-07T10:06:08;3.40;;;2.28;;
15681;SDS011;7941;50.966;6.978;2022-08-07T10:11:09;2.53;;;2.30;;
15681;SDS011;7941;50.966;6.978;2022-08-07T10:16:15;4.75;;;2.15;;
15681;SDS011;7941;50.966;6.978;2022-08-07T10:19:05;3.13;;;1.27;;
15681;SDS011;7941;50.966;6.978;2022-08-07T10:24:09;2.60;;;0.70;;
15681;SDS011;7941;50.966;6.978;2022-08-07T10:29:20;1.73;;;0.77;;
15681;SDS011;7941;50.966;6.978;2022-08-07T10:31:52;1.60;;;0.70;;
15681;SDS011;7941;50.966;6.978;2022-08-07T10:37:17;1.48;;;0.60;;
15681;SDS011;7941;50.966;6.978;2022-08-07T10:40:33;0.50;;;0.50;;
15681;SDS011;7941;50.966;6.978;2022-08-07T10:45:26;1.73;;;1.00;;
15681;SDS011;7941;50.966;6.978;2022-08-07T10:52:54;1.52;;;1.17;;
15681;SDS011;7941;50.966;6.978;2022-08-07T10:57:55;0.57;;;0.57;;
15681;SDS011;7941;50.966;6.978;2022-08-07T11:00:26;1.00;;;0.57;;
15681;SDS011;7941;50.966;6.978;2022-08-07T11:11:02;0.60;;;0.50;;
15681;SDS011;7941;50.966;6.978;2022-08-07T11:16:02;3.13;;;0.50;;
15681;SDS011;7941;50.966;6.978;2022-08-07T11:18:37;1.40;;;0.60;;
15681;SDS011;7941;50.966;6.978;2022-08-07T11:21:25;1.92;;;0.60;;
15681;SDS011;7941;50.966;6.978;2022-08-07T11:26:25;1.95;;;1.20;;
15681;SDS011;7941;50.966;6.978;2022-08-07T11:31:30;0.73;;;0.43;;
15681;SDS011;7941;50.966;6.978;2022-08-07T11:34:00;1.13;;;0.50;;
15681;SDS011;7941;50.966;6.978;2022-08-07T11:41:46;0.60;;;0.60;;
15681;SDS011;7941;50.966;6.978;2022-08-07T11:44:57;2.60;;;1.02;;
15681;SDS011;7941;50.966;6.978;2022-08-07T11:47:08;0.52;;;0.52;;
15681;SDS011;7941;50.966;6.978;2022-08-07T11:57:58;4.25;;;0.77;;
15681;SDS011;7941;50.966;6.978;2022-08-07T12:00:34;1.90;;;0.75;;
15681;SDS011;7941;50.966;6.978;2022-08-07T12:03:06;1.38;;;0.57;;
15681;SDS011;7941;50.966;6.978;2022-08-07T12:11:05;2.08;;;0.80;;
15681;SDS011;7941;50.966;6.978;2022-08-07T12:13:40;1.65;;;0.73;;
15681;SDS011;7941;50.966;6.978;2022-08-07T12:16:20;1.63;;;0.70;;
15681;SDS011;7941;50.966;6.978;2022-08-07T12:21:23;2.90;;;0.60;;
15681;SDS011;7941;50.966;6.978;2022-08-07T12:29:10;1.10;;;0.73;;
15681;SDS011;7941;50.966;6.978;2022-08-07T12:31:43;2.08;;;1.23;;
15681;SDS011;7941;50.966;6.978;2022-08-07T12:34:12;2.40;;;0.70;;
15681;SDS011;7941;50.966;6.978;2022-08-07T12:36:39;3.35;;;0.60;;
15681;SDS011;7941;50.966;6.978;2022-08-07T12:39:06;1.17;;;0.70;;
15681;SDS011;7941;50.966;6.978;2022-08-07T12:41:32;0.40;;;0.40;;
15681;SDS011;7941;50.966;6.978;2022-08-07T12:44:00;0.60;;;0.60;;
15681;SDS011;7941;50.966;6.978;2022-08-07T12:51:25;3.38;;;0.88;;
15681;SDS011;7941;50.966;6.978;2022-08-07T12:54:03;3.20;;;1.67;;
15681;SDS011;7941;50.966;6.978;2022-08-07T12:56:35;0.90;;;0.50;;
15681;SDS011;7941;50.966;6.978;2022-08-07T12:59:03;1.33;;;0.80;;
15681;SDS011;7941;50.966;6.978;2022-08-07T13:04:27;1.83;;;0.82;;
15681;SDS011;7941;50.966;6.978;2022-08-07T13:09:44;0.80;;;0.70;;
15681;SDS011;7941;50.966;6.978;2022-08-07T13:17:41;1.20;;;0.73;;
15681;SDS011;7941;50.966;6.978;2022-08-07T13:22:40;1.38;;;0.45;;
15681;SDS011;7941;50.966;6.978;2022-08-07T13:25:11;2.00;;;0.50;;
15681;SDS011;7941;50.966;6.978;2022-08-07T13:27:43;2.50;;;0.73;;
15681;SDS011;7941;50.966;6.978;2022-08-07T13:30:11;2.08;;;0.70;;
15681;SDS011;7941;50.966;6.978;2022-08-07T13:38:10;0.68;;;0.50;;
15681;SDS011;7941;50.966;6.978;2022-08-07T13:40:42;2.00;;;0.40;;
15681;SDS011;7941;50.966;6.978;2022-08-07T13:43:12;1.10;;;0.70;;
15681;SDS011;7941;50.966;6.978;2022-08-07T13:45:40;0.70;;;0.60;;
15681;SDS011;7941;50.966;6.978;2022-08-07T13:48:07;0.80;;;0.50;;
15681;SDS011;7941;50.966;6.978;2022-08-07T13:50:37;2.53;;;0.67;;
15681;SDS011;7941;50.966;6.978;2022-08-07T13:53:04;0.60;;;0.60;;
15681;SDS011;7941;50.966;6.978;2022-08-07T13:55:31;1.30;;;0.47;;
15681;SDS011;7941;50.966;6.978;2022-08-07T13:58:05;0.73;;;0.45;;
15681;SDS011;7941;50.966;6.978;2022-08-07T14:00:50;0.63;;;0.57;;
15681;SDS011;7941;50.966;6.978;2022-08-07T14:03:18;2.17;;;0.70;;
15681;SDS011;7941;50.966;6.978;2022-08-07T14:05:46;0.83;;;0.60;;
15681;SDS011;7941;50.966;6.978;2022-08-07T14:08:15;0.60;;;0.50;;
15681;SDS011;7941;50.966;6.978;2022-08-07T14:10:42;1.43;;;0.50;;
15681;SDS011;7941;50.966;6.978;2022-08-07T14:13:14;1.80;;;0.50;;
15681;SDS011;7941;50.966;6.978;2022-08-07T14:15:41;1.13;;;0.90;;
15681;SDS011;7941;50.966;6.978;2022-08-07T14:20:47;4.33;;;0.80;;
15681;SDS011;7941;50.966;6.978;2022-08-07T14:23:18;0.87;;;0.53;;
15681;SDS011;7941;50.966;6.978;2022-08-07T14:25:46;0.40;;;0.40;;
15681;SDS011;7941;50.966;6.978;2022-08-07T14:28:19;7.80;;;7.10;;
15681;SDS011;7941;50.966;6.978;2022-08-07T14:30:46;0.87;;;0.87;;
15681;SDS011;7941;50.966;6.978;2022-08-07T14:33:14;1.20;;;1.00;;
15681;SDS011;7941;50.966;6.978;2022-08-07T14:35:41;0.90;;;0.70;;
15681;SDS011;7941;50.966;6.978;2022-08-07T14:38:07;0.93;;;0.60;;
15681;SDS011;7941;50.966;6.978;2022-08-07T14:40:34;2.20;;;0.75;;
15681;SDS011;7941;50.966;6.978;2022-08-07T14:45:34;2.83;;;0.57;;
15681;SDS011;7941;50.966;6.978;2022-08-07T14:48:04;0.50;;;0.50;;
15681;SDS011;7941;50.966;6.978;2022-08-07T14:50:32;0.40;;;0.40;;
15681;SDS011;7941;50.966;6.978;2022-08-07T14:52:59;1.63;;;0.60;;
15681;SDS011;7941;50.966;6.978;2022-08-07T14:55:29;1.27;;;0.67;;
15681;SDS011;7941;50.966;6.978;2022-08-07T14:57:56;1.47;;;0.60;;
15681;SDS011;7941;50.966;6.978;2022-08-07T15:00:27;2.67;;;0.93;;
15681;SDS011;7941;50.966;6.978;2022-08-07T15:02:54;1.00;;;0.95;;
15681;SDS011;7941;50.966;6.978;2022-08-07T15:05:21;1.00;;;0.88;;
15681;SDS011;7941;50.966;6.978;2022-08-07T15:07:49;1.60;;;0.87;;
15681;SDS011;7941;50.966;6.978;2022-08-07T15:10:16;1.35;;;0.80;;
15681;SDS011;7941;50.966;6.978;2022-08-07T15:12:43;1.43;;;0.60;;
15681;SDS011;7941;50.966;6.978;2022-08-07T15:15:11;1.07;;;0.60;;
15681;SDS011;7941;50.966;6.978;2022-08-07T15:17:39;0.60;;;0.60;;
15681;SDS011;7941;50.966;6.978;2022-08-07T15:20:08;0.70;;;0.70;;
15681;SDS011;7941;50.966;6.978;2022-08-07T15:22:45;2.07;;;0.70;;
15681;SDS011;7941;50.966;6.978;2022-08-07T15:25:13;4.07;;;2.60;;
15681;SDS011;7941;50.966;6.978;2022-08-07T15:27:40;0.90;;;0.50;;
15681;SDS011;7941;50.966;6.978;2022-08-07T15:30:07;1.30;;;0.77;;
15681;SDS011;7941;50.966;6.978;2022-08-07T15:32:38;1.57;;;0.77;;
15681;SDS011;7941;50.966;6.978;2022-08-07T15:35:10;2.73;;;1.00;;
15681;SDS011;7941;50.966;6.978;2022-08-07T15:37:38;1.57;;;0.70;;
15681;SDS011;7941;50.966;6.978;2022-08-07T15:40:05;2.63;;;0.70;;
15681;SDS011;7941;50.966;6.978;2022-08-07T15:45:02;3.60;;;0.90;;
15681;SDS011;7941;50.966;6.978;2022-08-07T15:47:32;2.00;;;0.70;;
15681;SDS011;7941;50.966;6.978;2022-08-07T15:49:59;1.73;;;0.60;;
15681;SDS011;7941;50.966;6.978;2022-08-07T15:52:27;0.50;;;0.50;;
15681;SDS011;7941;50.966;6.978;2022-08-07T15:54:54;1.23;;;0.70;;
15681;SDS011;7941;50.966;6.978;2022-08-07T15:57:25;1.37;;;0.60;;
15681;SDS011;7941;50.966;6.978;2022-08-07T15:59:52;1.33;;;0.50;;
15681;SDS011;7941;50.966;6.978;2022-08-07T16:02:24;1.70;;;0.70;;
15681;SDS011;7941;50.966;6.978;2022-08-07T16:04:57;2.47;;;1.10;;
15681;SDS011;7941;50.966;6.978;2022-08-07T16:07:28;1.27;;;0.60;;
15681;SDS011;7941;50.966;6.978;2022-08-07T16:09:56;0.87;;;0.57;;
15681;SDS011;7941;50.966;6.978;2022-08-07T16:15:20;1.23;;;0.60;;
15681;SDS011;7941;50.966;6.978;2022-08-07T16:33:40;2.80;;;1.50;;
15681;SDS011;7941;50.966;6.978;2022-08-07T16:38:41;1.37;;;0.80;;
15681;SDS011;7941;50.966;6.978;2022-08-07T16:41:19;1.53;;;0.67;;
15681;SDS011;7941;50.966;6.978;2022-08-07T16:46:17;1.13;;;0.63;;
15681;SDS011;7941;50.966;6.978;2022-08-07T16:59:25;1.13;;;0.80;;
15681;SDS011;7941;50.966;6.978;2022-08-07T17:01:58;1.47;;;0.97;;
15681;SDS011;7941;50.966;6.978;2022-08-07T17:04:30;1.47;;;1.00;;
15681;SDS011;7941;50.966;6.978;2022-08-07T17:07:07;2.30;;;0.60;;
15681;SDS011;7941;50.966;6.978;2022-08-07T17:09:45;1.97;;;0.60;;
15681;SDS011;7941;50.966;6.978;2022-08-07T17:12:18;2.53;;;0.70;;
15681;SDS011;7941;50.966;6.978;2022-08-07T17:15:03;1.30;;;0.80;;
15681;SDS011;7941;50.966;6.978;2022-08-07T17:20:08;1.43;;;1.00;;
15681;SDS011;7941;50.966;6.978;2022-08-07T17:22:44;0.97;;;0.70;;
15681;SDS011;7941;50.966;6.978;2022-08-07T17:25:19;1.10;;;0.70;;
15681;SDS011;7941;50.966;6.978;2022-08-07T17:30:17;2.10;;;1.00;;
15681;SDS011;7941;50.966;6.978;2022-08-07T17:36:04;1.87;;;1.33;;
15681;SDS011;7941;50.966;6.978;2022-08-07T17:41:16;0.97;;;0.87;;
15681;SDS011;7941;50.966;6.978;2022-08-07T17:43:45;0.70;;;0.70;;
15681;SDS011;7941;50.966;6.978;2022-08-07T17:46:18;1.97;;;1.10;;
15681;SDS011;7941;50.966;6.978;2022-08-07T17:48:54;2.03;;;0.63;;
15681;SDS011;7941;50.966;6.978;2022-08-07T17:51:43;1.63;;;0.70;;
15681;SDS011;7941;50.966;6.978;2022-08-07T17:55:00;2.23;;;1.10;;
15681;SDS011;7941;50.966;6.978;2022-08-07T17:59:51;1.37;;;1.00;;
15681;SDS011;7941;50.966;6.978;2022-08-07T18:02:26;1.40;;;1.07;;
15681;SDS011;7941;50.966;6.978;2022-08-07T18:05:07;2.53;;;1.40;;
15681;SDS011;7941;50.966;6.978;2022-08-07T18:07:43;1.37;;;0.80;;
15681;SDS011;7941;50.966;6.978;2022-08-07T18:10:16;2.57;;;1.63;;
15681;SDS011;7941;50.966;6.978;2022-08-07T18:15:27;1.00;;;0.73;;
15681;SDS011;7941;50.966;6.978;2022-08-07T18:17:57;2.97;;;1.00;;
15681;SDS011;7941;50.966;6.978;2022-08-07T18:20:37;1.43;;;0.90;;
15681;SDS011;7941;50.966;6.978;2022-08-07T18:23:09;1.10;;;0.90;;
15681;SDS011;7941;50.966;6.978;2022-08-07T18:25:37;2.27;;;1.03;;
15681;SDS011;7941;50.966;6.978;2022-08-07T18:28:12;1.90;;;1.03;;
15681;SDS011;7941;50.966;6.978;2022-08-07T18:41:54;2.27;;;1.23;;
15681;SDS011;7941;50.966;6.978;2022-08-07T18:49:22;8.50;;;5.43;;
15681;SDS011;7941;50.966;6.978;2022-08-07T18:57:07;6.67;;;6.03;;
15681;SDS011;7941;50.966;6.978;2022-08-07T19:04:40;2.77;;;1.40;;
15681;SDS011;7941;50.966;6.978;2022-08-07T19:07:20;4.97;;;1.80;;
15681;SDS011;7941;50.966;6.978;2022-08-07T19:10:03;4.20;;;1.47;;